sensor_id;sensor_type;location;lat;lon;timestamp;pressure;altitude;pressure_sealevel;temperature;humidity
7774;BME280;3931;42.260;23.116;2023-02-03T00:01:41;95763.41;;;10.79;78.54
7774;BME280;3931;42.260;23.116;2023-02-03T00:04:07;95757.63;;;11.06;77.75
7774;BME280;3931;42.260;23.116;2023-02-03T00:06:33;95749.13;;;11.45;75.99
7774;BME280;3931;42.260;23.116;2023-02-03T00:08:59;95745.00;;;10.72;77.14
7774;BME280;3931;42.260;23.116;2023-02-03T00:11:26;95746.78;;;11.27;75.85
7774;BME280;3931;42.260;23.116;2023-02-03T00:13:54;95755.81;;;11.31;76.70
7774;BME280;3931;42.260;23.116;2023-02-03T00:16:20;95750.44;;;10.92;78.72
7774;BME280;3931;42.260;23.116;2023-02-03T00:18:46;95753.47;;;10.97;79.16
7774;BME280;3931;42.260;23.116;2023-02-03T00:21:12;95738.47;;;11.27;76.89
7774;BME280;3931;42.260;23.116;2023-02-03T00:23:39;95750.00;;;11.10;77.53
7774;BME280;3931;42.260;23.116;2023-02-03T00:26:06;95741.78;;;10.58;80.79
7774;BME280;3931;42.260;23.116;2023-02-03T00:28:32;95730.38;;;10.88;80.03
7774;BME280;3931;42.260;23.116;2023-02-03T00:30:58;95725.00;;;10.81;81.82
7774;BME280;3931;42.260;23.116;2023-02-03T00:33:25;95727.00;;;10.80;80.52
7774;BME280;3931;42.260;23.116;2023-02-03T00:35:51;95739.53;;;10.85;81.90
7774;BME280;3931;42.260;23.116;2023-02-03T00:38:17;95749.47;;;10.82;81.75
7774;BME280;3931;42.260;23.116;2023-02-03T00:40:51;95744.13;;;11.08;78.83
7774;BME280;3931;42.260;23.116;2023-02-03T00:43:17;95744.13;;;10.91;80.56
7774;BME280;3931;42.260;23.116;2023-02-03T00:45:43;95752.88;;;10.90;79.18
7774;BME280;3931;42.260;23.116;2023-02-03T00:48:09;95763.16;;;10.89;79.73
7774;BME280;3931;42.260;23.116;2023-02-03T00:50:35;95771.63;;;11.15;78.27
7774;BME280;3931;42.260;23.116;2023-02-03T00:53:02;95783.16;;;10.97;78.16
7774;BME280;3931;42.260;23.116;2023-02-03T00:55:28;95787.47;;;11.30;77.83
7774;BME280;3931;42.260;23.116;2023-02-03T00:57:54;95783.28;;;10.38;85.24
7774;BME280;3931;42.260;23.116;2023-02-03T01:00:20;95753.13;;;9.88;91.11
7774;BME280;3931;42.260;23.116;2023-02-03T01:02:46;95745.06;;;10.17;91.26
7774;BME280;3931;42.260;23.116;2023-02-03T01:05:13;95748.50;;;10.57;88.09
7774;BME280;3931;42.260;23.116;2023-02-03T01:07:39;95768.69;;;10.73;85.91
7774;BME280;3931;42.260;23.116;2023-02-03T01:10:06;95778.94;;;10.57;87.20
7774;BME280;3931;42.260;23.116;2023-02-03T01:12:33;95779.09;;;10.50;86.32
7774;BME280;3931;42.260;23.116;2023-02-03T01:14:59;95771.47;;;10.73;86.05
7774;BME280;3931;42.260;23.116;2023-02-03T01:17:25;95785.44;;;10.66;85.24
7774;BME280;3931;42.260;23.116;2023-02-03T01:19:51;95786.78;;;10.42;86.03
7774;BME280;3931;42.260;23.116;2023-02-03T01:22:18;95785.50;;;10.63;85.30
7774;BME280;3931;42.260;23.116;2023-02-03T01:24:44;95796.63;;;10.79;84.23
7774;BME280;3931;42.260;23.116;2023-02-03T01:27:10;95800.56;;;10.62;86.42
7774;BME280;3931;42.260;23.116;2023-02-03T01:29:36;95804.84;;;10.98;83.59
7774;BME280;3931;42.260;23.116;2023-02-03T01:32:03;95806.25;;;11.07;82.18
7774;BME280;3931;42.260;23.116;2023-02-03T01:34:29;95822.84;;;11.87;77.71
7774;BME280;3931;42.260;23.116;2023-02-03T01:36:55;95838.75;;;10.86;81.03
7774;BME280;3931;42.260;23.116;2023-02-03T01:39:21;95846.34;;;10.82;82.81
7774;BME280;3931;42.260;23.116;2023-02-03T01:41:47;95845.91;;;9.66;86.68
7774;BME280;3931;42.260;23.116;2023-02-03T01:44:39;95805.59;;;9.26;99.64
7774;BME280;3931;42.260;23.116;2023-02-03T01:47:12;95788.97;;;8.79;100.00
7774;BME280;3931;42.260;23.116;2023-02-03T01:49:42;95721.72;;;8.20;100.00
7774;BME280;3931;42.260;23.116;2023-02-03T01:52:10;95699.06;;;8.36;100.00
7774;BME280;3931;42.260;23.116;2023-02-03T01:54:40;95683.00;;;8.31;100.00
7774;BME280;3931;42.260;23.116;2023-02-03T01:57:12;95706.84;;;8.91;100.00
7774;BME280;3931;42.260;23.116;2023-02-03T01:59:42;95755.84;;;8.83;100.00
7774;BME280;3931;42.260;23.116;2023-02-03T02:02:09;95771.31;;;9.23;100.00
7774;BME280;3931;42.260;23.116;2023-02-03T02:04:42;95748.31;;;8.60;100.00
7774;BME280;3931;42.260;23.116;2023-02-03T02:07:11;95728.00;;;8.74;100.00
7774;BME280;3931;42.260;23.116;2023-02-03T02:09:39;95730.63;;;8.58;100.00
7774;BME280;3931;42.260;23.116;2023-02-03T02:12:05;95752.06;;;8.73;100.00
7774;BME280;3931;42.260;23.116;2023-02-03T02:14:31;95713.75;;;8.29;100.00
7774;BME280;3931;42.260;23.116;2023-02-03T02:17:05;95720.91;;;7.93;100.00
7774;BME280;3931;42.260;23.116;2023-02-03T02:20:04;95747.78;;;7.85;100.00
7774;BME280;3931;42.260;23.116;2023-02-03T02:22:51;95794.69;;;7.75;100.00
7774;BME280;3931;42.260;23.116;2023-02-03T02:25:45;95859.00;;;8.32;97.14
7774;BME280;3931;42.260;23.116;2023-02-03T02:28:31;95879.13;;;8.86;91.17
7774;BME280;3931;42.260;23.116;2023-02-03T02:33:57;95912.47;;;9.25;81.52
7774;BME280;3931;42.260;23.116;2023-02-03T02:36:29;95897.72;;;9.09;88.26
7774;BME280;3931;42.260;23.116;2023-02-03T02:39:00;95901.63;;;9.38;84.58
7774;BME280;3931;42.260;23.116;2023-02-03T02:41:32;95897.63;;;9.16;81.62
7774;BME280;3931;42.260;23.116;2023-02-03T02:44:03;95887.84;;;9.11;82.81
7774;BME280;3931;42.260;23.116;2023-02-03T02:46:36;95900.56;;;9.05;79.76
7774;BME280;3931;42.260;23.116;2023-02-03T02:49:06;95910.16;;;9.47;77.24
7774;BME280;3931;42.260;23.116;2023-02-03T02:51:35;95914.59;;;9.41;80.01
7774;BME280;3931;42.260;23.116;2023-02-03T02:54:05;95911.38;;;8.93;80.42
7774;BME280;3931;42.260;23.116;2023-02-03T02:56:34;95913.00;;;9.17;78.67
7774;BME280;3931;42.260;23.116;2023-02-03T02:59:02;95926.06;;;9.13;78.12
7774;BME280;3931;42.260;23.116;2023-02-03T03:01:29;95918.66;;;9.33;78.97
7774;BME280;3931;42.260;23.116;2023-02-03T03:03:56;95931.81;;;9.48;77.86
7774;BME280;3931;42.260;23.116;2023-02-03T03:06:28;95934.06;;;9.80;76.99
7774;BME280;3931;42.260;23.116;2023-02-03T03:09:00;95920.00;;;9.48;78.46
7774;BME280;3931;42.260;23.116;2023-02-03T03:11:30;95929.06;;;9.48;78.58
7774;BME280;3931;42.260;23.116;2023-02-03T03:13:58;95931.16;;;9.41;75.52
7774;BME280;3931;42.260;23.116;2023-02-03T03:16:28;95939.34;;;9.48;78.78
7774;BME280;3931;42.260;23.116;2023-02-03T03:19:00;95935.47;;;9.42;80.78
7774;BME280;3931;42.260;23.116;2023-02-03T03:21:31;95934.28;;;9.89;78.34
7774;BME280;3931;42.260;23.116;2023-02-03T03:24:04;95922.09;;;10.10;76.44
7774;BME280;3931;42.260;23.116;2023-02-03T03:26:34;95933.41;;;10.39;74.78
7774;BME280;3931;42.260;23.116;2023-02-03T03:29:06;95934.81;;;10.27;75.00
7774;BME280;3931;42.260;23.116;2023-02-03T03:31:36;95940.75;;;9.60;77.06
7774;BME280;3931;42.260;23.116;2023-02-03T03:34:02;95936.94;;;9.73;78.56
7774;BME280;3931;42.260;23.116;2023-02-03T03:36:31;95938.88;;;9.99;77.72
7774;BME280;3931;42.260;23.116;2023-02-03T03:39:02;95931.19;;;9.87;76.38
7774;BME280;3931;42.260;23.116;2023-02-03T03:41:37;95931.00;;;10.21;74.24
7774;BME280;3931;42.260;23.116;2023-02-03T03:44:08;95943.69;;;9.95;72.88
7774;BME280;3931;42.260;23.116;2023-02-03T03:46:40;95934.06;;;9.57;74.86
7774;BME280;3931;42.260;23.116;2023-02-03T03:49:08;95935.91;;;9.40;78.76
7774;BME280;3931;42.260;23.116;2023-02-03T03:51:40;95940.59;;;9.43;77.72
7774;BME280;3931;42.260;23.116;2023-02-03T03:54:11;95925.16;;;9.46;77.75
7774;BME280;3931;42.260;23.116;2023-02-03T03:56:42;95928.34;;;9.18;75.13
7774;BME280;3931;42.260;23.116;2023-02-03T03:59:13;95926.38;;;9.91;71.61
7774;BME280;3931;42.260;23.116;2023-02-03T04:01:41;95927.47;;;9.97;70.69
7774;BME280;3931;42.260;23.116;2023-02-03T04:04:09;95923.19;;;9.70;69.80
7774;BME280;3931;42.260;23.116;2023-02-03T04:06:37;95928.66;;;9.23;71.59
7774;BME280;3931;42.260;23.116;2023-02-03T04:09:04;95929.63;;;9.63;74.24
7774;BME280;3931;42.260;23.116;2023-02-03T04:11:30;95930.19;;;9.28;71.45
7774;BME280;3931;42.260;23.116;2023-02-03T04:14:14;95932.09;;;9.81;71.42
7774;BME280;3931;42.260;23.116;2023-02-03T04:16:40;95942.50;;;9.20;73.43
7774;BME280;3931;42.260;23.116;2023-02-03T04:19:06;95929.13;;;9.45;72.44
7774;BME280;3931;42.260;23.116;2023-02-03T04:21:32;95936.53;;;9.75;70.03
7774;BME280;3931;42.260;23.116;2023-02-03T04:23:59;95930.53;;;8.73;72.07
7774;BME280;3931;42.260;23.116;2023-02-03T04:26:25;95930.63;;;8.66;66.60
7774;BME280;3931;42.260;23.116;2023-02-03T04:28:51;95948.00;;;9.23;64.30
7774;BME280;3931;42.260;23.116;2023-02-03T04:31:17;95958.41;;;8.52;72.17
7774;BME280;3931;42.260;23.116;2023-02-03T04:33:43;95952.88;;;8.52;73.00
7774;BME280;3931;42.260;23.116;2023-02-03T04:36:09;95950.03;;;8.59;73.36
7774;BME280;3931;42.260;23.116;2023-02-03T04:38:35;95948.81;;;8.63;70.97
7774;BME280;3931;42.260;23.116;2023-02-03T04:41:02;95944.53;;;8.59;67.95
7774;BME280;3931;42.260;23.116;2023-02-03T04:43:28;95973.41;;;8.06;73.99
7774;BME280;3931;42.260;23.116;2023-02-03T04:45:54;95963.47;;;8.87;71.74
7774;BME280;3931;42.260;23.116;2023-02-03T04:48:20;95966.41;;;9.57;66.27
7774;BME280;3931;42.260;23.116;2023-02-03T04:50:46;95970.41;;;8.99;66.79
7774;BME280;3931;42.260;23.116;2023-02-03T04:53:12;95978.88;;;8.85;64.34
7774;BME280;3931;42.260;23.116;2023-02-03T04:55:38;95996.78;;;8.36;66.51
7774;BME280;3931;42.260;23.116;2023-02-03T04:58:05;95989.63;;;8.75;68.55
7774;BME280;3931;42.260;23.116;2023-02-03T05:00:31;95983.34;;;9.32;67.32
7774;BME280;3931;42.260;23.116;2023-02-03T05:02:57;95987.63;;;9.36;67.42
7774;BME280;3931;42.260;23.116;2023-02-03T05:05:23;95993.34;;;9.49;66.71
7774;BME280;3931;42.260;23.116;2023-02-03T05:07:49;95992.88;;;9.27;66.67
7774;BME280;3931;42.260;23.116;2023-02-03T05:10:15;95998.00;;;9.55;69.21
7774;BME280;3931;42.260;23.116;2023-02-03T05:12:41;95998.00;;;9.55;68.02
7774;BME280;3931;42.260;23.116;2023-02-03T05:15:08;96002.63;;;9.62;67.98
7774;BME280;3931;42.260;23.116;2023-02-03T05:17:34;96008.84;;;9.70;67.04
7774;BME280;3931;42.260;23.116;2023-02-03T05:20:03;95996.59;;;9.44;67.23
7774;BME280;3931;42.260;23.116;2023-02-03T05:22:30;96007.69;;;9.40;69.15
7774;BME280;3931;42.260;23.116;2023-02-03T05:24:56;96014.03;;;9.37;69.78
7774;BME280;3931;42.260;23.116;2023-02-03T05:27:22;96008.75;;;9.50;68.89
7774;BME280;3931;42.260;23.116;2023-02-03T05:29:48;96001.34;;;9.13;66.30
7774;BME280;3931;42.260;23.116;2023-02-03T05:32:14;96014.81;;;9.38;63.95
7774;BME280;3931;42.260;23.116;2023-02-03T05:34:40;96021.91;;;9.39;67.43
7774;BME280;3931;42.260;23.116;2023-02-03T05:37:06;96016.41;;;9.39;68.79
7774;BME280;3931;42.260;23.116;2023-02-03T05:39:32;96015.66;;;9.05;69.69
7774;BME280;3931;42.260;23.116;2023-02-03T05:41:58;96025.97;;;8.67;73.41
7774;BME280;3931;42.260;23.116;2023-02-03T05:44:26;96021.13;;;8.78;74.54
7774;BME280;3931;42.260;23.116;2023-02-03T05:46:54;96023.50;;;8.76;72.25
7774;BME280;3931;42.260;23.116;2023-02-03T05:49:21;96020.53;;;8.94;71.13
7774;BME280;3931;42.260;23.116;2023-02-03T05:51:48;96013.72;;;9.02;71.21
7774;BME280;3931;42.260;23.116;2023-02-03T05:54:14;96017.94;;;9.40;69.66
7774;BME280;3931;42.260;23.116;2023-02-03T05:56:41;96026.97;;;9.44;67.60
7774;BME280;3931;42.260;23.116;2023-02-03T05:59:07;96024.06;;;9.54;66.95
7774;BME280;3931;42.260;23.116;2023-02-03T06:01:33;96030.56;;;9.68;66.37
7774;BME280;3931;42.260;23.116;2023-02-03T06:04:00;96034.34;;;9.24;66.50
7774;BME280;3931;42.260;23.116;2023-02-03T06:06:27;96039.91;;;9.20;68.00
7774;BME280;3931;42.260;23.116;2023-02-03T06:08:58;96040.66;;;8.91;69.81
7774;BME280;3931;42.260;23.116;2023-02-03T06:11:24;96043.69;;;9.03;70.90
7774;BME280;3931;42.260;23.116;2023-02-03T06:13:50;96050.53;;;8.92;70.67
7774;BME280;3931;42.260;23.116;2023-02-03T06:16:16;96050.78;;;8.30;75.54
7774;BME280;3931;42.260;23.116;2023-02-03T06:18:42;96046.81;;;8.31;77.62
7774;BME280;3931;42.260;23.116;2023-02-03T06:21:08;96058.13;;;8.43;76.02
7774;BME280;3931;42.260;23.116;2023-02-03T06:23:35;96059.19;;;8.12;74.74
7774;BME280;3931;42.260;23.116;2023-02-03T06:26:01;96057.22;;;8.09;73.41
7774;BME280;3931;42.260;23.116;2023-02-03T06:28:27;96067.81;;;8.14;74.89
7774;BME280;3931;42.260;23.116;2023-02-03T06:30:53;96067.41;;;8.60;74.42
7774;BME280;3931;42.260;23.116;2023-02-03T06:33:19;96062.50;;;8.41;73.50
7774;BME280;3931;42.260;23.116;2023-02-03T06:35:45;96066.84;;;8.38;72.54
7774;BME280;3931;42.260;23.116;2023-02-03T06:38:11;96072.50;;;8.17;67.94
7774;BME280;3931;42.260;23.116;2023-02-03T06:40:38;96081.88;;;8.71;66.02
7774;BME280;3931;42.260;23.116;2023-02-03T06:43:04;96093.81;;;8.61;64.61
7774;BME280;3931;42.260;23.116;2023-02-03T06:45:30;96092.19;;;9.01;62.83
7774;BME280;3931;42.260;23.116;2023-02-03T06:47:56;96099.88;;;8.82;63.20
7774;BME280;3931;42.260;23.116;2023-02-03T06:50:22;96091.69;;;9.13;62.25
7774;BME280;3931;42.260;23.116;2023-02-03T06:52:48;96082.00;;;9.58;60.99
7774;BME280;3931;42.260;23.116;2023-02-03T06:55:15;96087.13;;;9.29;63.11
7774;BME280;3931;42.260;23.116;2023-02-03T06:57:45;96083.25;;;9.53;63.52
7774;BME280;3931;42.260;23.116;2023-02-03T07:00:13;96089.31;;;9.72;62.66
7774;BME280;3931;42.260;23.116;2023-02-03T07:02:40;96083.91;;;9.01;64.22
7774;BME280;3931;42.260;23.116;2023-02-03T07:05:06;96089.34;;;9.41;63.10
7774;BME280;3931;42.260;23.116;2023-02-03T07:07:32;96078.34;;;9.65;61.99
7774;BME280;3931;42.260;23.116;2023-02-03T07:09:58;96082.34;;;9.64;59.45
7774;BME280;3931;42.260;23.116;2023-02-03T07:12:24;96083.44;;;10.23;59.32
7774;BME280;3931;42.260;23.116;2023-02-03T07:14:51;96096.03;;;9.44;61.66
7774;BME280;3931;42.260;23.116;2023-02-03T07:17:17;96093.13;;;9.81;62.47
7774;BME280;3931;42.260;23.116;2023-02-03T07:19:43;96096.25;;;9.83;63.81
7774;BME280;3931;42.260;23.116;2023-02-03T07:22:09;96097.84;;;9.24;64.80
7774;BME280;3931;42.260;23.116;2023-02-03T07:24:36;96111.72;;;8.79;68.06
7774;BME280;3931;42.260;23.116;2023-02-03T07:27:02;96111.56;;;8.97;67.09
7774;BME280;3931;42.260;23.116;2023-02-03T07:29:28;96105.63;;;8.99;63.12
7774;BME280;3931;42.260;23.116;2023-02-03T07:31:55;96112.31;;;8.98;66.24
7774;BME280;3931;42.260;23.116;2023-02-03T07:34:21;96105.28;;;9.27;61.80
7774;BME280;3931;42.260;23.116;2023-02-03T07:36:47;96106.50;;;9.56;60.63
7774;BME280;3931;42.260;23.116;2023-02-03T07:39:13;96110.75;;;9.64;59.52
7774;BME280;3931;42.260;23.116;2023-02-03T07:41:39;96112.44;;;10.11;58.23
7774;BME280;3931;42.260;23.116;2023-02-03T07:44:05;96103.97;;;9.95;59.57
7774;BME280;3931;42.260;23.116;2023-02-03T07:46:33;96114.34;;;9.88;61.99
7774;BME280;3931;42.260;23.116;2023-02-03T07:49:00;96117.13;;;10.14;59.57
7774;BME280;3931;42.260;23.116;2023-02-03T07:51:28;96114.25;;;9.95;61.17
7774;BME280;3931;42.260;23.116;2023-02-03T07:53:55;96112.63;;;9.97;60.60
7774;BME280;3931;42.260;23.116;2023-02-03T07:56:21;96116.28;;;9.91;59.29
7774;BME280;3931;42.260;23.116;2023-02-03T07:58:47;96118.59;;;10.22;56.97
7774;BME280;3931;42.260;23.116;2023-02-03T08:01:16;96118.28;;;9.87;57.71
7774;BME280;3931;42.260;23.116;2023-02-03T08:03:42;96119.38;;;9.36;59.21
7774;BME280;3931;42.260;23.116;2023-02-03T08:06:09;96111.75;;;10.04;58.46
7774;BME280;3931;42.260;23.116;2023-02-03T08:08:35;96117.13;;;10.14;57.92
7774;BME280;3931;42.260;23.116;2023-02-03T08:11:01;96121.06;;;10.40;57.86
7774;BME280;3931;42.260;23.116;2023-02-03T08:13:27;96114.56;;;10.27;56.71
7774;BME280;3931;42.260;23.116;2023-02-03T08:15:53;96137.66;;;8.89;58.90
7774;BME280;3931;42.260;23.116;2023-02-03T08:18:20;96133.06;;;9.77;61.23
7774;BME280;3931;42.260;23.116;2023-02-03T08:20:46;96132.47;;;10.19;59.40
7774;BME280;3931;42.260;23.116;2023-02-03T08:23:14;96136.75;;;10.23;57.87
7774;BME280;3931;42.260;23.116;2023-02-03T08:25:40;96141.41;;;10.00;56.80
7774;BME280;3931;42.260;23.116;2023-02-03T08:28:06;96140.19;;;10.54;55.99
7774;BME280;3931;42.260;23.116;2023-02-03T08:30:32;96144.91;;;11.23;56.79
7774;BME280;3931;42.260;23.116;2023-02-03T08:32:58;96147.34;;;10.98;56.18
7774;BME280;3931;42.260;23.116;2023-02-03T08:35:24;96144.41;;;11.09;54.28
7774;BME280;3931;42.260;23.116;2023-02-03T08:37:50;96152.41;;;11.23;53.79
7774;BME280;3931;42.260;23.116;2023-02-03T08:40:17;96144.44;;;10.36;54.58
7774;BME280;3931;42.260;23.116;2023-02-03T08:42:43;96156.19;;;10.43;54.91
7774;BME280;3931;42.260;23.116;2023-02-03T08:45:09;96154.03;;;10.31;53.96
7774;BME280;3931;42.260;23.116;2023-02-03T08:47:35;96159.53;;;11.24;52.37
7774;BME280;3931;42.260;23.116;2023-02-03T08:50:02;96158.41;;;12.00;50.47
7774;BME280;3931;42.260;23.116;2023-02-03T08:52:28;96159.88;;;11.45;50.42
7774;BME280;3931;42.260;23.116;2023-02-03T08:54:54;96163.88;;;11.44;50.73
7774;BME280;3931;42.260;23.116;2023-02-03T08:57:21;96163.31;;;11.33;51.29
7774;BME280;3931;42.260;23.116;2023-02-03T08:59:47;96160.41;;;12.67;48.24
7774;BME280;3931;42.260;23.116;2023-02-03T09:02:16;96159.97;;;12.69;47.43
7774;BME280;3931;42.260;23.116;2023-02-03T09:04:43;96165.38;;;12.24;47.63
7774;BME280;3931;42.260;23.116;2023-02-03T09:07:09;96159.19;;;13.45;46.11
7774;BME280;3931;42.260;23.116;2023-02-03T09:09:35;96163.41;;;13.21;45.32
7774;BME280;3931;42.260;23.116;2023-02-03T09:12:01;96160.78;;;13.30;45.10
7774;BME280;3931;42.260;23.116;2023-02-03T09:14:31;96157.59;;;13.15;45.99
7774;BME280;3931;42.260;23.116;2023-02-03T09:16:58;96154.28;;;12.24;45.44
7774;BME280;3931;42.260;23.116;2023-02-03T09:19:24;96164.56;;;11.72;47.46
7774;BME280;3931;42.260;23.116;2023-02-03T09:21:50;96169.00;;;12.21;46.17
7774;BME280;3931;42.260;23.116;2023-02-03T09:24:17;96162.59;;;11.88;47.77
7774;BME280;3931;42.260;23.116;2023-02-03T09:26:43;96163.75;;;11.91;47.19
7774;BME280;3931;42.260;23.116;2023-02-03T09:29:09;96160.28;;;13.03;45.94
7774;BME280;3931;42.260;23.116;2023-02-03T09:31:36;96157.63;;;12.51;46.02
7774;BME280;3931;42.260;23.116;2023-02-03T09:34:02;96163.59;;;12.33;46.38
7774;BME280;3931;42.260;23.116;2023-02-03T09:36:28;96170.06;;;13.24;45.37
7774;BME280;3931;42.260;23.116;2023-02-03T09:38:55;96183.88;;;12.95;44.81
7774;BME280;3931;42.260;23.116;2023-02-03T09:41:30;96179.19;;;13.24;44.52
7774;BME280;3931;42.260;23.116;2023-02-03T09:44:06;96170.97;;;12.56;44.41
7774;BME280;3931;42.260;23.116;2023-02-03T09:46:39;96171.31;;;12.06;45.29
7774;BME280;3931;42.260;23.116;2023-02-03T09:49:12;96175.94;;;12.81;43.35
7774;BME280;3931;42.260;23.116;2023-02-03T09:51:43;96171.25;;;12.94;44.35
7774;BME280;3931;42.260;23.116;2023-02-03T09:54:18;96167.69;;;12.45;43.74
7774;BME280;3931;42.260;23.116;2023-02-03T09:56:46;96173.09;;;12.32;46.47
7774;BME280;3931;42.260;23.116;2023-02-03T09:59:16;96163.06;;;12.38;44.83
7774;BME280;3931;42.260;23.116;2023-02-03T10:01:48;96158.44;;;12.16;44.90
7774;BME280;3931;42.260;23.116;2023-02-03T10:04:23;96162.91;;;11.94;45.20
7774;BME280;3931;42.260;23.116;2023-02-03T10:06:55;96153.28;;;12.34;44.68
7774;BME280;3931;42.260;23.116;2023-02-03T10:09:36;96151.81;;;11.94;45.41
7774;BME280;3931;42.260;23.116;2023-02-03T10:15:18;96147.66;;;12.02;45.03
7774;BME280;3931;42.260;23.116;2023-02-03T10:17:49;96138.28;;;11.56;45.44
7774;BME280;3931;42.260;23.116;2023-02-03T10:20:20;96139.88;;;12.13;44.97
7774;BME280;3931;42.260;23.116;2023-02-03T10:22:49;96138.00;;;12.42;44.10
7774;BME280;3931;42.260;23.116;2023-02-03T10:25:18;96134.97;;;12.36;45.04
7774;BME280;3931;42.260;23.116;2023-02-03T10:27:50;96134.75;;;14.07;42.77
7774;BME280;3931;42.260;23.116;2023-02-03T10:30:20;96147.50;;;13.79;41.91
7774;BME280;3931;42.260;23.116;2023-02-03T10:32:48;96128.13;;;14.29;42.05
7774;BME280;3931;42.260;23.116;2023-02-03T10:35:14;96127.13;;;15.42;40.46
7774;BME280;3931;42.260;23.116;2023-02-03T10:37:43;96117.19;;;15.41;39.50
7774;BME280;3931;42.260;23.116;2023-02-03T10:40:11;96116.22;;;15.35;39.56
7774;BME280;3931;42.260;23.116;2023-02-03T10:42:38;96120.06;;;15.16;39.12
7774;BME280;3931;42.260;23.116;2023-02-03T10:45:22;96102.13;;;14.57;39.90
7774;BME280;3931;42.260;23.116;2023-02-03T10:47:50;96112.44;;;13.69;40.75
7774;BME280;3931;42.260;23.116;2023-02-03T10:50:20;96113.56;;;13.84;41.25
7774;BME280;3931;42.260;23.116;2023-02-03T10:52:46;96117.34;;;13.36;41.73
7774;BME280;3931;42.260;23.116;2023-02-03T10:55:28;96107.50;;;13.48;41.69
7774;BME280;3931;42.260;23.116;2023-02-03T10:57:56;96105.38;;;12.30;41.62
7774;BME280;3931;42.260;23.116;2023-02-03T11:00:27;96105.91;;;12.57;42.06
7774;BME280;3931;42.260;23.116;2023-02-03T11:02:56;96117.19;;;12.50;42.28
7774;BME280;3931;42.260;23.116;2023-02-03T11:05:23;96108.91;;;13.11;40.91
7774;BME280;3931;42.260;23.116;2023-02-03T11:07:51;96097.31;;;13.70;40.10
7774;BME280;3931;42.260;23.116;2023-02-03T11:10:29;96103.13;;;12.89;42.50
7774;BME280;3931;42.260;23.116;2023-02-03T11:13:18;96102.22;;;13.08;43.86
7774;BME280;3931;42.260;23.116;2023-02-03T11:15:51;96101.94;;;13.19;44.15
7774;BME280;3931;42.260;23.116;2023-02-03T11:18:46;96103.69;;;13.42;43.93
7774;BME280;3931;42.260;23.116;2023-02-03T11:21:17;96099.84;;;12.78;43.47
7774;BME280;3931;42.260;23.116;2023-02-03T11:23:48;96100.53;;;12.82;43.57
7774;BME280;3931;42.260;23.116;2023-02-03T11:26:18;96112.34;;;12.54;42.60
7774;BME280;3931;42.260;23.116;2023-02-03T11:28:47;96103.28;;;12.82;42.04
7774;BME280;3931;42.260;23.116;2023-02-03T11:31:17;96085.69;;;13.46;42.18
7774;BME280;3931;42.260;23.116;2023-02-03T11:33:51;96090.53;;;13.71;41.63
7774;BME280;3931;42.260;23.116;2023-02-03T11:36:19;96086.78;;;12.91;41.97
7774;BME280;3931;42.260;23.116;2023-02-03T11:38:45;96077.44;;;11.89;42.70
7774;BME280;3931;42.260;23.116;2023-02-03T11:41:15;96068.44;;;12.01;42.05
7774;BME280;3931;42.260;23.116;2023-02-03T11:43:42;96063.09;;;11.94;43.18
7774;BME280;3931;42.260;23.116;2023-02-03T11:46:08;96055.59;;;12.71;42.29
7774;BME280;3931;42.260;23.116;2023-02-03T11:48:36;96049.72;;;13.68;41.00
7774;BME280;3931;42.260;23.116;2023-02-03T11:51:12;96045.94;;;14.37;40.96
7774;BME280;3931;42.260;23.116;2023-02-03T11:53:56;96048.38;;;14.35;39.94
7774;BME280;3931;42.260;23.116;2023-02-03T11:56:31;96051.00;;;13.51;40.28
7774;BME280;3931;42.260;23.116;2023-02-03T12:02:04;96041.72;;;14.08;39.93
7774;BME280;3931;42.260;23.116;2023-02-03T12:04:58;96029.50;;;14.99;39.26
7774;BME280;3931;42.260;23.116;2023-02-03T12:07:52;96040.09;;;15.04;38.75
7774;BME280;3931;42.260;23.116;2023-02-03T12:10:30;96047.50;;;14.85;38.27
7774;BME280;3931;42.260;23.116;2023-02-03T12:13:06;96037.34;;;13.69;40.61
7774;BME280;3931;42.260;23.116;2023-02-03T12:15:52;96035.41;;;14.67;37.45
7774;BME280;3931;42.260;23.116;2023-02-03T12:18:32;96028.66;;;14.89;36.97
7774;BME280;3931;42.260;23.116;2023-02-03T12:21:14;96029.31;;;14.59;35.99
7774;BME280;3931;42.260;23.116;2023-02-03T12:23:55;96042.00;;;13.59;36.24
7774;BME280;3931;42.260;23.116;2023-02-03T12:26:28;96040.09;;;14.70;35.79
7774;BME280;3931;42.260;23.116;2023-02-03T12:29:02;96035.94;;;15.30;35.96
7774;BME280;3931;42.260;23.116;2023-02-03T12:31:34;96034.41;;;15.81;36.53
7774;BME280;3931;42.260;23.116;2023-02-03T12:34:12;96039.75;;;17.59;34.19
7774;BME280;3931;42.260;23.116;2023-02-03T12:36:42;96033.19;;;17.53;31.97
7774;BME280;3931;42.260;23.116;2023-02-03T12:39:17;96024.16;;;16.18;32.60
7774;BME280;3931;42.260;23.116;2023-02-03T12:41:48;96023.66;;;15.71;33.73
7774;BME280;3931;42.260;23.116;2023-02-03T12:44:17;96016.28;;;16.26;33.09
7774;BME280;3931;42.260;23.116;2023-02-03T12:46:49;96020.59;;;14.91;34.42
7774;BME280;3931;42.260;23.116;2023-02-03T12:49:28;96009.41;;;14.35;35.24
7774;BME280;3931;42.260;23.116;2023-02-03T12:51:58;96015.00;;;15.04;35.20
7774;BME280;3931;42.260;23.116;2023-02-03T12:54:34;96010.31;;;14.79;35.30
7774;BME280;3931;42.260;23.116;2023-02-03T12:57:11;96008.22;;;13.86;35.97
7774;BME280;3931;42.260;23.116;2023-02-03T12:59:38;96001.53;;;13.96;36.75
7774;BME280;3931;42.260;23.116;2023-02-03T13:02:13;96005.34;;;13.89;36.94
7774;BME280;3931;42.260;23.116;2023-02-03T13:04:44;96007.22;;;13.93;36.48
7774;BME280;3931;42.260;23.116;2023-02-03T13:07:16;95999.88;;;13.73;36.21
7774;BME280;3931;42.260;23.116;2023-02-03T13:09:48;95997.88;;;13.86;36.93
7774;BME280;3931;42.260;23.116;2023-02-03T13:12:26;95995.31;;;13.92;37.22
7774;BME280;3931;42.260;23.116;2023-02-03T13:14:57;95989.00;;;13.79;36.81
7774;BME280;3931;42.260;23.116;2023-02-03T13:17:26;95996.31;;;13.98;37.49
7774;BME280;3931;42.260;23.116;2023-02-03T13:19:57;96004.84;;;12.71;38.13
7774;BME280;3931;42.260;23.116;2023-02-03T13:22:26;96005.38;;;12.05;39.83
7774;BME280;3931;42.260;23.116;2023-02-03T13:24:56;96002.06;;;12.26;41.69
7774;BME280;3931;42.260;23.116;2023-02-03T13:27:34;96001.88;;;12.17;41.01
7774;BME280;3931;42.260;23.116;2023-02-03T13:30:23;96000.94;;;12.68;40.95
7774;BME280;3931;42.260;23.116;2023-02-03T13:33:15;95994.34;;;12.01;40.03
7774;BME280;3931;42.260;23.116;2023-02-03T13:35:57;96011.03;;;12.62;39.78